Time;durP1;ratioP1;P1;durP2;ratioP2;P2;SDS_P1;SDS_P2;PMS_P1;PMS_P2;Temp;Humidity;BMP_temperature;BMP_pressure;BME280_temperature;BME280_humidity;BME280_pressure;Samples;Min_cycle;Max_cycle;Signal;HPM_P1;HPM_P2
2021/09/12 00:01:05;;;;;;;18.70;13.32;;;;;;;;;;6195712;28;20056;-71
2021/09/12 00:04:08;;;;;;;17.42;12.38;;;;;;;;;;6202144;28;20124;-69
2021/09/12 00:07:10;;;;;;;15.52;12.65;;;;;;;;;;6201350;28;20112;-69
2021/09/12 00:10:12;;;;;;;18.30;13.10;;;;;;;;;;6213061;28;20192;-70
2021/09/12 00:13:14;;;;;;;16.45;13.20;;;;;;;;;;6203778;28;20042;-69
2021/09/12 00:16:18;;;;;;;15.95;12.57;;;;;;;;;;6202953;28;20220;-70
2021/09/12 00:19:21;;;;;;;15.32;12.43;;;;;;;;;;6208078;28;20042;-69
2021/09/12 00:22:22;;;;;;;22.17;13.40;;;;;;;;;;6207125;28;20072;-71
2021/09/12 00:25:24;;;;;;;22.92;13.70;;;;;;;;;;6214246;28;20109;-71
2021/09/12 00:28:26;;;;;;;22.40;14.75;;;;;;;;;;6222043;28;20128;-70
2021/09/12 00:31:28;;;;;;;17.13;13.57;;;;;;;;;;6202890;28;20046;-72
2021/09/12 00:34:31;;;;;;;21.40;14.20;;;;;;;;;;6220875;28;20105;-70
2021/09/12 00:37:33;;;;;;;18.50;12.63;;;;;;;;;;6200803;28;20081;-69
2021/09/12 00:40:34;;;;;;;21.65;13.68;;;;;;;;;;6215502;28;20053;-71
2021/09/12 00:43:36;;;;;;;24.73;14.32;;;;;;;;;;6212853;28;20049;-70
2021/09/12 00:46:39;;;;;;;17.67;12.48;;;;;;;;;;6212481;28;20042;-69
2021/09/12 00:49:43;;;;;;;15.30;12.27;;;;;;;;;;6212115;28;20042;-70
2021/09/12 00:52:46;;;;;;;16.40;12.15;;;;;;;;;;6210994;28;20056;-70
2021/09/12 00:55:49;;;;;;;16.55;12.80;;;;;;;;;;6216695;28;20056;-71
2021/09/12 00:58:52;;;;;;;16.58;12.70;;;;;;;;;;6220309;28;20050;-70
2021/09/12 01:01:54;;;;;;;19.02;12.32;;;;;;;;;;6207306;28;20081;-70
2021/09/12 01:04:57;;;;;;;18.17;12.23;;;;;;;;;;6213183;28;20054;-71
2021/09/12 01:07:59;;;;;;;;;;;;;;;;;;6212539;28;20049;-69
2021/09/12 01:11:00;;;;;;;16.05;12.48;;;;;;;;;;6214745;28;19929;-70
2021/09/12 01:14:02;;;;;;;16.25;12.77;;;;;;;;;;6221334;28;20054;-71
2021/09/12 01:17:04;;;;;;;13.82;10.45;;;;;;;;;;6212020;28;20099;-70
2021/09/12 01:20:09;;;;;;;16.98;12.75;;;;;;;;;;6210963;28;20060;-74
2021/09/12 01:23:10;;;;;;;13.25;11.85;;;;;;;;;;6212026;28;20113;-71
2021/09/12 01:26:13;;;;;;;15.15;12.40;;;;;;;;;;6215648;28;20057;-70
2021/09/12 01:29:15;;;;;;;16.85;12.45;;;;;;;;;;6216953;28;20062;-71
2021/09/12 01:32:17;;;;;;;17.00;12.55;;;;;;;;;;6210686;28;20109;-71
2021/09/12 01:35:18;;;;;;;17.30;12.77;;;;;;;;;;6213297;28;20046;-70
2021/09/12 01:38:20;;;;;;;14.68;12.30;;;;;;;;;;6212646;28;20134;-69
2021/09/12 01:41:23;;;;;;;14.93;12.48;;;;;;;;;;6213316;28;20065;-69
2021/09/12 01:44:25;;;;;;;13.32;11.93;;;;;;;;;;6216601;28;20485;-69
2021/09/12 01:47:26;;;;;;;14.95;12.63;;;;;;;;;;6212789;28;20054;-68
2021/09/12 01:50:29;;;;;;;16.42;12.95;;;;;;;;;;6210425;28;20038;-69
2021/09/12 01:53:32;;;;;;;16.58;12.45;;;;;;;;;;6217567;28;20054;-69
2021/09/12 01:56:36;;;;;;;17.67;12.80;;;;;;;;;;6213053;28;20112;-68
2021/09/12 01:59:37;;;;;;;17.13;11.38;;;;;;;;;;6219010;28;20050;-67
2021/09/12 02:02:39;;;;;;;15.70;12.07;;;;;;;;;;6204720;28;20038;-69
2021/09/12 02:05:41;;;;;;;13.40;11.27;;;;;;;;;;6207703;28;20050;-71
2021/09/12 02:08:42;;;;;;;13.88;12.07;;;;;;;;;;6213745;28;20074;-69
2021/09/12 02:11:45;;;;;;;17.40;12.75;;;;;;;;;;6206288;28;20121;-69
2021/09/12 02:14:47;;;;;;;15.90;12.88;;;;;;;;;;6212468;28;20058;-69
2021/09/12 02:17:48;;;;;;;15.27;12.65;;;;;;;;;;6199741;28;20225;-69
2021/09/12 02:20:50;;;;;;;15.20;12.27;;;;;;;;;;6199177;28;20042;-69
2021/09/12 02:23:52;;;;;;;14.95;12.18;;;;;;;;;;6213645;28;20126;-68
2021/09/12 02:26:55;;;;;;;16.27;12.38;;;;;;;;;;6209560;28;20439;-69
2021/09/12 02:29:56;;;;;;;18.65;13.40;;;;;;;;;;6220077;28;20149;-70
2021/09/12 02:32:58;;;;;;;16.17;13.93;;;;;;;;;;6207192;28;20061;-70
2021/09/12 02:36:01;;;;;;;14.38;11.75;;;;;;;;;;6212207;28;20046;-69
2021/09/12 02:39:04;;;;;;;18.88;12.98;;;;;;;;;;6218177;28;20050;-71
2021/09/12 02:42:07;;;;;;;20.30;11.90;;;;;;;;;;6211878;28;20052;-70
2021/09/12 02:45:09;;;;;;;16.13;13.27;;;;;;;;;;6210986;28;20126;-69
2021/09/12 02:48:11;;;;;;;18.45;12.63;;;;;;;;;;6211646;28;20108;-69
2021/09/12 02:51:13;;;;;;;15.70;12.77;;;;;;;;;;6210157;28;20169;-69
2021/09/12 02:54:14;;;;;;;21.02;13.43;;;;;;;;;;6219237;28;20066;-69
2021/09/12 02:57:17;;;;;;;16.00;12.55;;;;;;;;;;6206079;28;20282;-69
2021/09/12 03:00:19;;;;;;;15.65;12.48;;;;;;;;;;6210283;28;20086;-69
2021/09/12 03:03:21;;;;;;;13.25;11.88;;;;;;;;;;6200590;28;20420;-69
2021/09/12 03:06:22;;;;;;;15.35;12.25;;;;;;;;;;6210272;28;20149;-69
2021/09/12 03:09:24;;;;;;;14.77;11.88;;;;;;;;;;6213753;28;20124;-70
2021/09/12 03:12:27;;;;;;;17.05;12.32;;;;;;;;;;6214359;28;20105;-68
2021/09/12 03:15:28;;;;;;;13.63;11.93;;;;;;;;;;6212254;28;20105;-69
2021/09/12 03:18:30;;;;;;;15.25;11.90;;;;;;;;;;6208343;28;20062;-69
2021/09/12 03:21:32;;;;;;;14.60;12.38;;;;;;;;;;6208977;28;20088;-68
2021/09/12 03:24:33;;;;;;;14.40;12.07;;;;;;;;;;6210755;28;20077;-68
2021/09/12 03:27:36;;;;;;;15.85;12.45;;;;;;;;;;6215589;28;20073;-69
2021/09/12 03:30:38;;;;;;;14.02;12.57;;;;;;;;;;6238538;28;20125;-69
2021/09/12 03:33:40;;;;;;;15.52;13.10;;;;;;;;;;6237568;28;20045;-69
2021/09/12 03:36:41;;;;;;;15.38;13.02;;;;;;;;;;6234569;28;20109;-69
2021/09/12 03:39:43;;;;;;;14.25;12.40;;;;;;;;;;6242701;28;20073;-69
2021/09/12 03:42:46;;;;;;;15.00;12.73;;;;;;;;;;6235106;28;20113;-70
2021/09/12 03:45:47;;;;;;;13.40;12.00;;;;;;;;;;6235160;28;20065;-68
2021/09/12 03:48:49;;;;;;;13.45;12.05;;;;;;;;;;6240401;28;20049;-69
2021/09/12 03:51:51;;;;;;;14.95;13.43;;;;;;;;;;6238105;28;20075;-68
2021/09/12 03:54:52;;;;;;;16.10;13.32;;;;;;;;;;6245934;28;20046;-69
2021/09/12 03:57:55;;;;;;;17.33;12.65;;;;;;;;;;6240924;28;20131;-69
2021/09/12 04:00:57;;;;;;;14.85;12.23;;;;;;;;;;6244627;28;20049;-69
2021/09/12 04:03:59;;;;;;;17.80;12.20;;;;;;;;;;6213434;28;20046;-69
2021/09/12 04:07:00;;;;;;;13.77;11.80;;;;;;;;;;6197309;28;20174;-68
2021/09/12 04:10:02;;;;;;;14.65;12.93;;;;;;;;;;6222407;28;20153;-68
2021/09/12 04:13:05;;;;;;;16.70;13.68;;;;;;;;;;6211574;28;20132;-69
2021/09/12 04:16:07;;;;;;;17.08;12.63;;;;;;;;;;6214299;28;20107;-67
2021/09/12 04:19:08;;;;;;;15.40;12.35;;;;;;;;;;6218740;28;20069;-68
2021/09/12 04:22:10;;;;;;;17.33;14.13;;;;;;;;;;6211774;28;20136;-67
2021/09/12 04:25:12;;;;;;;15.23;12.52;;;;;;;;;;6217971;28;20066;-66
2021/09/12 04:28:16;;;;;;;13.55;12.15;;;;;;;;;;6222507;28;20073;-67
2021/09/12 04:31:18;;;;;;;15.50;12.98;;;;;;;;;;6205639;28;20057;-67
2021/09/12 04:34:19;;;;;;;14.23;12.73;;;;;;;;;;6220857;28;20100;-68
2021/09/12 04:37:21;;;;;;;14.48;12.98;;;;;;;;;;6209607;28;20124;-68
2021/09/12 04:40:23;;;;;;;15.40;12.38;;;;;;;;;;6225560;28;20148;-69
2021/09/12 04:43:25;;;;;;;17.10;12.98;;;;;;;;;;6240048;28;20056;-68
2021/09/12 04:46:27;;;;;;;16.10;12.13;;;;;;;;;;6240025;28;20596;-69
2021/09/12 04:49:29;;;;;;;17.35;12.90;;;;;;;;;;6239601;28;20478;-69
2021/09/12 04:52:30;;;;;;;20.63;13.05;;;;;;;;;;6235809;28;20045;-70
2021/09/12 04:55:32;;;;;;;15.98;13.07;;;;;;;;;;6240918;28;20516;-69
2021/09/12 04:58:35;;;;;;;27.27;13.45;;;;;;;;;;6242093;28;20050;-69
2021/09/12 05:01:37;;;;;;;19.63;13.13;;;;;;;;;;6228967;28;20497;-68
2021/09/12 05:04:39;;;;;;;22.17;14.48;;;;;;;;;;6224823;28;20062;-71
2021/09/12 05:07:40;;;;;;;21.77;14.65;;;;;;;;;;6205624;28;20461;-70
2021/09/12 05:10:42;;;;;;;26.23;13.35;;;;;;;;;;6220996;28;20085;-70
2021/09/12 05:13:45;;;;;;;27.55;14.45;;;;;;;;;;6217363;28;20051;-70
2021/09/12 05:16:46;;;;;;;21.42;12.70;;;;;;;;;;6205207;28;20105;-70
2021/09/12 05:19:48;;;;;;;18.90;13.30;;;;;;;;;;6211922;28;20050;-70
2021/09/12 05:22:50;;;;;;;18.95;13.25;;;;;;;;;;6207352;28;20042;-70
2021/09/12 05:25:51;;;;;;;21.58;13.15;;;;;;;;;;6213094;28;20041;-70
2021/09/12 05:28:54;;;;;;;14.85;12.40;;;;;;;;;;6223191;28;20092;-70
2021/09/12 05:31:56;;;;;;;17.15;11.95;;;;;;;;;;6209182;28;20140;-70
2021/09/12 05:34:58;;;;;;;12.27;10.85;;;;;;;;;;6209264;28;20050;-71
2021/09/12 05:38:00;;;;;;;13.60;11.20;;;;;;;;;;6209368;28;20133;-70
2021/09/12 05:41:01;;;;;;;12.70;11.15;;;;;;;;;;6211029;28;20042;-70
2021/09/12 05:44:05;;;;;;;12.57;10.23;;;;;;;;;;6221161;28;20042;-70
2021/09/12 05:47:07;;;;;;;22.15;11.32;;;;;;;;;;6209802;28;20101;-70
2021/09/12 05:50:09;;;;;;;12.05;10.73;;;;;;;;;;6201590;28;20042;-70
2021/09/12 05:53:12;;;;;;;12.18;10.23;;;;;;;;;;6214456;28;20128;-71
2021/09/12 05:56:14;;;;;;;11.75;10.32;;;;;;;;;;6209005;28;20112;-70
2021/09/12 05:59:17;;;;;;;14.30;12.38;;;;;;;;;;6217589;28;20501;-68
2021/09/12 06:02:19;;;;;;;13.48;10.98;;;;;;;;;;6199415;28;20173;-69
2021/09/12 06:05:21;;;;;;;11.52;10.40;;;;;;;;;;6209567;28;20077;-69
2021/09/12 06:08:22;;;;;;;12.57;10.75;;;;;;;;;;6212337;28;20117;-68
2021/09/12 06:11:24;;;;;;;14.50;11.50;;;;;;;;;;6213507;28;20510;-68
2021/09/12 06:14:28;;;;;;;12.63;11.18;;;;;;;;;;6214872;28;20088;-68
2021/09/12 06:17:29;;;;;;;12.70;10.55;;;;;;;;;;6216132;28;20050;-69
2021/09/12 06:20:31;;;;;;;13.68;10.30;;;;;;;;;;6233805;28;20605;-71
2021/09/12 06:23:32;;;;;;;13.88;10.35;;;;;;;;;;6242185;28;20656;-68
2021/09/12 06:26:34;;;;;;;14.02;11.90;;;;;;;;;;6229156;28;20573;-70
2021/09/12 06:29:37;;;;;;;12.90;10.90;;;;;;;;;;6246291;28;20104;-69
2021/09/12 06:32:39;;;;;;;12.18;10.73;;;;;;;;;;6237728;28;20085;-68
2021/09/12 06:35:41;;;;;;;12.30;10.88;;;;;;;;;;6235157;28;20046;-70
2021/09/12 06:38:42;;;;;;;15.48;10.85;;;;;;;;;;6232770;28;20054;-69
2021/09/12 06:41:44;;;;;;;12.35;11.05;;;;;;;;;;6241033;28;20116;-69
2021/09/12 06:44:47;;;;;;;13.10;10.23;;;;;;;;;;6215527;28;20054;-69
2021/09/12 06:47:49;;;;;;;15.18;11.57;;;;;;;;;;6226635;28;20052;-69
2021/09/12 06:50:53;;;;;;;12.20;9.88;;;;;;;;;;6210581;28;20877;-70
2021/09/12 06:53:54;;;;;;;13.57;12.18;;;;;;;;;;6219662;28;20057;-70
2021/09/12 06:56:56;;;;;;;13.73;11.55;;;;;;;;;;6223013;28;20089;-69
2021/09/12 06:59:59;;;;;;;12.77;10.13;;;;;;;;;;6223555;28;20171;-69
2021/09/12 07:03:01;;;;;;;13.20;10.55;;;;;;;;;;6218699;28;20042;-69
2021/09/12 07:06:02;;;;;;;12.65;10.68;;;;;;;;;;6220949;28;20098;-69
2021/09/12 07:09:05;;;;;;;12.70;10.77;;;;;;;;;;6224947;28;20398;-69
2021/09/12 07:12:08;;;;;;;12.93;10.73;;;;;;;;;;6222433;28;20050;-69
2021/09/12 07:15:12;;;;;;;13.60;11.15;;;;;;;;;;6220171;28;20053;-75
2021/09/12 07:18:14;;;;;;;12.07;10.82;;;;;;;;;;6228064;28;20114;-69
2021/09/12 07:21:15;;;;;;;11.70;9.73;;;;;;;;;;6220699;28;20048;-72
2021/09/12 07:24:17;;;;;;;11.93;10.73;;;;;;;;;;6238750;28;20046;-69
2021/09/12 07:27:18;;;;;;;12.50;10.88;;;;;;;;;;6236980;28;20070;-69
2021/09/12 07:30:21;;;;;;;11.80;10.20;;;;;;;;;;6236220;28;20077;-72
2021/09/12 07:33:23;;;;;;;;;;;;;;;;;;6228635;28;20077;-71
2021/09/12 07:36:24;;;;;;;11.98;9.95;;;;;;;;;;6217552;28;19984;-70
2021/09/12 07:39:26;;;;;;;12.07;10.75;;;;;;;;;;6222294;28;20131;-70
2021/09/12 07:42:28;;;;;;;12.40;9.88;;;;;;;;;;6217361;28;20076;-72
2021/09/12 07:45:31;;;;;;;11.38;9.77;;;;;;;;;;6207912;28;20089;-74
2021/09/12 07:48:32;;;;;;;11.27;9.88;;;;;;;;;;6212376;28;20092;-70
2021/09/12 07:51:34;;;;;;;12.65;9.45;;;;;;;;;;6202717;28;20085;-70
2021/09/12 07:54:36;;;;;;;10.30;9.30;;;;;;;;;;6212677;28;20053;-69
2021/09/12 07:57:37;;;;;;;11.23;9.27;;;;;;;;;;6195345;28;20038;-69
2021/09/12 08:00:40;;;;;;;10.38;8.32;;;;;;;;;;6210163;28;20049;-70
2021/09/12 08:03:42;;;;;;;11.85;10.07;;;;;;;;;;6211483;28;20085;-70
2021/09/12 08:06:43;;;;;;;10.98;9.35;;;;;;;;;;6203882;28;20116;-70
2021/09/12 08:09:45;;;;;;;9.70;8.75;;;;;;;;;;6209917;28;20522;-71
2021/09/12 08:12:47;;;;;;;10.32;8.15;;;;;;;;;;6208797;28;20053;-70
2021/09/12 08:15:50;;;;;;;14.00;8.95;;;;;;;;;;6206609;28;20133;-69
2021/09/12 08:18:51;;;;;;;11.60;10.40;;;;;;;;;;6212221;28;20125;-70
2021/09/12 08:21:53;;;;;;;11.98;9.65;;;;;;;;;;6207784;28;20096;-71
2021/09/12 08:24:55;;;;;;;10.52;8.40;;;;;;;;;;6225580;28;20065;-70
2021/09/12 08:27:56;;;;;;;10.88;8.32;;;;;;;;;;6219797;28;20125;-70
2021/09/12 08:31:00;;;;;;;9.57;8.57;;;;;;;;;;6206520;28;20510;-70
2021/09/12 08:34:01;;;;;;;11.10;8.82;;;;;;;;;;6215288;28;20149;-71
2021/09/12 08:37:03;;;;;;;9.00;8.20;;;;;;;;;;6202198;28;20189;-71
2021/09/12 08:40:07;;;;;;;11.63;9.00;;;;;;;;;;6216288;28;20053;-73
2021/09/12 08:43:09;;;;;;;10.05;8.93;;;;;;;;;;6203834;28;20076;-70
2021/09/12 08:46:12;;;;;;;10.60;9.02;;;;;;;;;;6196070;28;20054;-71
2021/09/12 08:49:13;;;;;;;9.77;8.80;;;;;;;;;;6206962;28;20110;-70
2021/09/12 08:52:15;;;;;;;10.97;9.03;;;;;;;;;;6202879;28;20133;-70
2021/09/12 08:55:17;;;;;;;10.73;8.80;;;;;;;;;;6208040;28;20085;-70
2021/09/12 08:58:19;;;;;;;10.77;7.97;;;;;;;;;;6211366;28;20143;-70
2021/09/12 09:01:33;;;;;;;9.82;8.70;;;;;;;;;;6199695;28;20096;-70
2021/09/12 09:04:36;;;;;;;9.40;7.80;;;;;;;;;;6214312;28;20108;-70
2021/09/12 09:07:38;;;;;;;10.07;7.85;;;;;;;;;;6198074;28;20050;-70
2021/09/12 09:10:41;;;;;;;10.13;7.97;;;;;;;;;;6204287;28;20037;-70
2021/09/12 09:13:43;;;;;;;7.75;6.95;;;;;;;;;;6223991;28;20519;-67
2021/09/12 09:16:47;;;;;;;10.35;7.32;;;;;;;;;;6209189;28;20044;-70
2021/09/12 09:19:52;;;;;;;10.20;7.18;;;;;;;;;;6192631;28;20065;-70
2021/09/12 09:22:57;;;;;;;11.60;8.05;;;;;;;;;;6195739;28;20057;-70
2021/09/12 09:25:58;;;;;;;9.77;8.23;;;;;;;;;;6196882;28;20043;-71
2021/09/12 09:29:00;;;;;;;10.32;7.38;;;;;;;;;;6217861;28;20145;-68
2021/09/12 09:32:05;;;;;;;11.43;7.55;;;;;;;;;;6199444;28;20046;-69
2021/09/12 09:35:07;;;;;;;9.23;6.95;;;;;;;;;;6204469;28;20091;-71
2021/09/12 09:38:09;;;;;;;11.80;7.40;;;;;;;;;;6202491;28;20042;-70
2021/09/12 09:41:12;;;;;;;8.55;7.72;;;;;;;;;;6202139;28;20047;-70
2021/09/12 09:44:14;;;;;;;10.63;7.25;;;;;;;;;;6210516;28;20043;-70
2021/09/12 09:47:26;;;;;;;9.70;8.18;;;;;;;;;;6194895;28;20046;-71
2021/09/12 09:50:29;;;;;;;9.27;7.78;;;;;;;;;;6196545;28;21045;-70
2021/09/12 09:53:35;;;;;;;11.60;9.43;;;;;;;;;;6205294;28;20068;-69
2021/09/12 09:56:36;;;;;;;10.93;8.50;;;;;;;;;;6206398;28;20054;-70
2021/09/12 09:59:38;;;;;;;8.18;7.32;;;;;;;;;;6220795;28;20074;-70
2021/09/12 10:02:41;;;;;;;8.25;7.45;;;;;;;;;;6194721;28;20100;-70
2021/09/12 10:05:43;;;;;;;13.98;7.95;;;;;;;;;;6194054;28;20077;-70
2021/09/12 10:08:45;;;;;;;9.18;7.40;;;;;;;;;;6202858;28;20516;-70
2021/09/12 10:11:49;;;;;;;10.52;8.43;;;;;;;;;;6195139;28;20043;-70
2021/09/12 10:14:52;;;;;;;8.82;7.03;;;;;;;;;;6209190;28;20376;-70
2021/09/12 10:17:56;;;;;;;8.88;7.47;;;;;;;;;;6199242;28;20042;-70
2021/09/12 10:21:24;;;;;;;8.20;6.70;;;;;;;;;;6200771;28;20132;-70
2021/09/12 10:24:25;;;;;;;9.77;7.95;;;;;;;;;;6205361;28;20060;-71
2021/09/12 10:27:34;;;;;;;;;;;;;;;;;;6195375;28;20151;-70
2021/09/12 10:30:38;;;;;;;9.27;7.03;;;;;;;;;;6199000;28;19932;-70
2021/09/12 10:33:41;;;;;;;8.10;7.30;;;;;;;;;;6203461;28;20064;-70
2021/09/12 10:36:43;;;;;;;8.00;7.30;;;;;;;;;;6194546;28;20042;-70
2021/09/12 10:39:52;;;;;;;10.13;7.68;;;;;;;;;;6206418;28;20133;-70
2021/09/12 10:42:54;;;;;;;9.20;7.13;;;;;;;;;;6198697;28;20131;-70
2021/09/12 10:46:03;;;;;;;;;;;;;;;;;;6192849;28;20050;-69
2021/09/12 10:49:13;;;;;;;11.82;8.55;;;;;;;;;;6205011;28;19922;-70
2021/09/12 10:52:48;;;;;;;12.93;8.60;;;;;;;;;;6194015;28;20043;-70
2021/09/12 10:56:08;;;;;;;10.48;7.68;;;;;;;;;;6188473;28;20050;-70
2021/09/12 10:59:11;;;;;;;10.38;7.75;;;;;;;;;;6226369;28;20816;-70
2021/09/12 11:02:16;;;;;;;9.07;7.75;;;;;;;;;;6220561;28;20064;-70
2021/09/12 11:05:25;;;;;;;9.15;7.97;;;;;;;;;;6221215;28;20053;-71
2021/09/12 11:08:36;;;;;;;9.32;8.13;;;;;;;;;;6223119;28;20728;-70
2021/09/12 11:11:39;;;;;;;11.48;8.00;;;;;;;;;;6220549;28;20069;-69
2021/09/12 11:14:40;;;;;;;9.48;8.60;;;;;;;;;;6223651;28;20132;-70
2021/09/12 11:17:52;;;;;;;8.75;7.43;;;;;;;;;;6218951;28;20184;-69
2021/09/12 11:20:55;;;;;;;10.23;7.80;;;;;;;;;;6219253;28;20045;-73
2021/09/12 11:24:03;;;;;;;11.40;8.30;;;;;;;;;;6226015;28;20136;-72
2021/09/12 11:27:06;;;;;;;9.13;8.23;;;;;;;;;;6212843;28;20184;-73
2021/09/12 11:30:09;;;;;;;9.93;7.78;;;;;;;;;;6228127;28;20049;-73
2021/09/12 11:33:10;;;;;;;8.70;7.72;;;;;;;;;;6217967;28;20042;-70
2021/09/12 11:36:13;;;;;;;8.27;7.57;;;;;;;;;;6201796;28;20042;-70
2021/09/12 11:39:16;;;;;;;9.02;7.40;;;;;;;;;;6206128;28;20124;-70
2021/09/12 11:42:19;;;;;;;9.27;8.05;;;;;;;;;;6197886;28;20129;-68
2021/09/12 11:45:21;;;;;;;9.27;8.13;;;;;;;;;;6224441;28;20053;-70
2021/09/12 11:48:22;;;;;;;13.07;8.80;;;;;;;;;;6200824;28;20475;-70
2021/09/12 11:51:27;;;;;;;9.57;7.93;;;;;;;;;;6195838;28;20177;-69
2021/09/12 11:54:31;;;;;;;11.35;7.80;;;;;;;;;;6202743;28;20572;-72
2021/09/12 11:57:33;;;;;;;10.30;8.27;;;;;;;;;;6202792;28;20050;-71
2021/09/12 12:00:38;;;;;;;10.65;7.55;;;;;;;;;;6199869;28;20387;-71
2021/09/12 12:03:40;;;;;;;9.70;8.30;;;;;;;;;;6202971;28;20046;-71
2021/09/12 12:06:45;;;;;;;9.23;8.20;;;;;;;;;;6195177;28;20471;-71
2021/09/12 12:09:48;;;;;;;11.45;7.82;;;;;;;;;;6209548;28;20557;-71
2021/09/12 12:12:49;;;;;;;10.50;7.93;;;;;;;;;;6201554;28;20056;-71
2021/09/12 12:15:51;;;;;;;12.60;9.73;;;;;;;;;;6207303;28;20547;-71
2021/09/12 12:19:01;;;;;;;12.35;8.40;;;;;;;;;;6207847;28;20132;-70
2021/09/12 12:22:07;;;;;;;12.85;8.73;;;;;;;;;;6207292;28;20502;-71
2021/09/12 12:25:11;;;;;;;11.07;8.05;;;;;;;;;;6209676;28;25494;-71
2021/09/12 12:28:17;;;;;;;13.00;7.40;;;;;;;;;;6208612;28;20565;-71
2021/09/12 12:31:18;;;;;;;12.05;8.02;;;;;;;;;;6199098;28;20042;-72
2021/09/12 12:34:40;;;;;;;9.65;8.13;;;;;;;;;;6215677;28;20104;-71
2021/09/12 12:37:43;;;;;;;;;;;;;;;;;;6206338;28;20049;-71
2021/09/12 12:40:44;;;;;;;8.70;7.90;;;;;;;;;;6205200;28;19928;-71
2021/09/12 12:43:47;;;;;;;8.35;7.55;;;;;;;;;;6207307;28;20042;-71
2021/09/12 12:46:49;;;;;;;9.35;7.25;;;;;;;;;;6199829;28;20042;-71
2021/09/12 12:49:57;;;;;;;8.57;6.90;;;;;;;;;;6213190;28;20129;-71
2021/09/12 12:53:16;;;;;;;7.25;6.55;;;;;;;;;;6199070;28;20058;-70
2021/09/12 12:56:22;;;;;;;9.02;7.18;;;;;;;;;;6206925;28;20141;-71
2021/09/12 12:59:23;;;;;;;8.25;7.47;;;;;;;;;;6219454;28;20050;-71
2021/09/12 13:02:25;;;;;;;7.60;6.65;;;;;;;;;;6189396;28;20140;-71
2021/09/12 13:05:27;;;;;;;10.00;7.22;;;;;;;;;;6210624;28;20510;-71
2021/09/12 13:08:30;;;;;;;7.78;6.97;;;;;;;;;;6209574;28;20158;-71
2021/09/12 13:11:33;;;;;;;12.95;7.40;;;;;;;;;;6208158;28;20054;-71
2021/09/12 13:14:35;;;;;;;7.03;6.43;;;;;;;;;;6224574;28;20536;-71
2021/09/12 13:17:36;;;;;;;8.30;6.47;;;;;;;;;;6194376;28;20047;-71
2021/09/12 13:20:38;;;;;;;7.13;6.53;;;;;;;;;;6203770;28;20056;-71
2021/09/12 13:23:41;;;;;;;6.85;6.10;;;;;;;;;;6205711;28;20490;-71
2021/09/12 13:26:42;;;;;;;6.90;6.18;;;;;;;;;;6199308;28;20692;-71
2021/09/12 13:29:44;;;;;;;7.65;6.07;;;;;;;;;;6214375;28;20054;-71
2021/09/12 13:32:46;;;;;;;8.88;6.30;;;;;;;;;;6206630;28;20046;-71
2021/09/12 13:35:48;;;;;;;8.48;5.47;;;;;;;;;;6194135;28;20102;-71
2021/09/12 13:38:51;;;;;;;5.80;5.28;;;;;;;;;;6216570;28;20494;-71
2021/09/12 13:41:52;;;;;;;5.82;4.95;;;;;;;;;;6204191;28;20050;-71
2021/09/12 13:44:55;;;;;;;7.13;5.85;;;;;;;;;;6215468;28;20125;-71
2021/09/12 13:47:57;;;;;;;6.57;5.97;;;;;;;;;;6199588;28;20172;-71
2021/09/12 13:50:59;;;;;;;6.28;5.68;;;;;;;;;;6199710;28;20128;-71
2021/09/12 13:54:02;;;;;;;8.50;6.05;;;;;;;;;;6212122;28;20046;-71
2021/09/12 13:57:04;;;;;;;5.53;5.03;;;;;;;;;;6212550;28;20044;-71
2021/09/12 14:00:06;;;;;;;8.80;5.50;;;;;;;;;;6202946;28;20046;-71
2021/09/12 14:03:08;;;;;;;6.05;5.40;;;;;;;;;;6202374;28;20098;-71
2021/09/12 14:06:12;;;;;;;5.80;5.30;;;;;;;;;;6198049;28;20604;-71
2021/09/12 14:09:15;;;;;;;10.02;5.28;;;;;;;;;;6211445;28;20132;-71
2021/09/12 14:12:17;;;;;;;5.72;5.18;;;;;;;;;;6199420;28;20413;-70
2021/09/12 14:15:18;;;;;;;6.45;5.35;;;;;;;;;;6201721;28;20176;-72
2021/09/12 14:18:20;;;;;;;6.43;5.10;;;;;;;;;;6200595;28;20110;-72
2021/09/12 14:21:22;;;;;;;5.88;4.78;;;;;;;;;;6199792;28;20584;-70
2021/09/12 14:24:25;;;;;;;8.15;5.25;;;;;;;;;;6213270;28;20371;-70
2021/09/12 14:27:26;;;;;;;5.53;5.03;;;;;;;;;;6200813;28;20048;-70
2021/09/12 14:30:28;;;;;;;5.47;4.78;;;;;;;;;;6208440;28;20143;-70
2021/09/12 14:33:29;;;;;;;5.40;4.90;;;;;;;;;;6210906;28;20053;-67
2021/09/12 14:36:31;;;;;;;5.53;4.90;;;;;;;;;;6197986;28;20101;-67
2021/09/12 14:39:34;;;;;;;8.82;4.78;;;;;;;;;;6202294;28;20050;-70
2021/09/12 14:42:36;;;;;;;10.73;4.55;;;;;;;;;;6200532;28;20414;-70
2021/09/12 14:45:38;;;;;;;9.07;5.13;;;;;;;;;;6200939;28;20049;-70
2021/09/12 14:48:39;;;;;;;6.40;4.95;;;;;;;;;;6212356;28;20837;-70
2021/09/12 14:51:41;;;;;;;10.32;5.30;;;;;;;;;;6200976;28;20136;-70
2021/09/12 14:54:46;;;;;;;8.88;5.25;;;;;;;;;;6204460;28;20128;-70
2021/09/12 14:57:47;;;;;;;5.30;4.80;;;;;;;;;;6204913;28;20048;-70
2021/09/12 15:00:49;;;;;;;12.77;4.25;;;;;;;;;;6200669;28;20054;-70
2021/09/12 15:03:51;;;;;;;6.95;4.22;;;;;;;;;;6207246;28;20129;-70
2021/09/12 15:06:52;;;;;;;5.32;4.13;;;;;;;;;;6201506;28;20135;-70
2021/09/12 15:09:55;;;;;;;5.47;4.07;;;;;;;;;;6204521;28;20050;-70
2021/09/12 15:13:00;;;;;;;5.75;4.22;;;;;;;;;;6202522;28;20657;-69
2021/09/12 15:16:03;;;;;;;5.15;4.38;;;;;;;;;;6199326;28;20089;-69
2021/09/12 15:19:05;;;;;;;5.22;4.72;;;;;;;;;;6203635;28;20042;-69
2021/09/12 15:22:07;;;;;;;4.93;4.30;;;;;;;;;;6201713;28;20060;-68
2021/09/12 15:25:10;;;;;;;7.95;4.53;;;;;;;;;;6197601;28;20112;-69
2021/09/12 15:28:12;;;;;;;7.97;5.60;;;;;;;;;;6202119;28;20532;-69
2021/09/12 15:31:13;;;;;;;8.38;4.72;;;;;;;;;;6194187;28;20095;-69
2021/09/12 15:34:16;;;;;;;8.25;5.07;;;;;;;;;;6198035;28;20137;-67
2021/09/12 15:37:17;;;;;;;5.63;5.00;;;;;;;;;;6191946;28;20054;-68
2021/09/12 15:40:20;;;;;;;5.50;4.80;;;;;;;;;;6200295;28;20465;-69
2021/09/12 15:43:22;;;;;;;6.65;4.60;;;;;;;;;;6204973;28;20137;-68
2021/09/12 15:46:24;;;;;;;5.97;5.10;;;;;;;;;;6201183;28;20700;-68
2021/09/12 15:49:25;;;;;;;5.15;4.70;;;;;;;;;;6206223;28;20046;-69
2021/09/12 15:52:27;;;;;;;5.53;4.65;;;;;;;;;;6208391;28;20129;-70
2021/09/12 15:55:30;;;;;;;7.05;5.10;;;;;;;;;;6203105;28;20145;-69
2021/09/12 15:58:32;;;;;;;5.50;4.35;;;;;;;;;;6208538;28;20089;-69
2021/09/12 16:01:33;;;;;;;5.07;4.55;;;;;;;;;;6197842;28;20569;-69
2021/09/12 16:04:35;;;;;;;12.75;5.07;;;;;;;;;;6207608;28;20574;-69
2021/09/12 16:07:37;;;;;;;6.65;4.50;;;;;;;;;;6198220;28;20362;-69
2021/09/12 16:10:40;;;;;;;15.27;5.00;;;;;;;;;;6202588;28;20132;-70
2021/09/12 16:13:41;;;;;;;8.13;4.45;;;;;;;;;;6207455;28;20128;-70
2021/09/12 16:16:43;;;;;;;6.68;4.00;;;;;;;;;;6190296;28;20049;-69
2021/09/12 16:19:44;;;;;;;;;;;;;;;;;;6196728;28;20402;-69
2021/09/12 16:22:46;;;;;;;6.80;4.38;;;;;;;;;;6200372;28;19952;-69
2021/09/12 16:25:49;;;;;;;;;;;;;;;;;;6203955;28;20140;-69
2021/09/12 16:28:50;;;;;;;5.05;4.63;;;;;;;;;;6212186;28;19932;-69
2021/09/12 16:31:52;;;;;;;6.40;4.63;;;;;;;;;;6195773;28;20041;-69
2021/09/12 16:34:53;;;;;;;;;;;;;;;;;;6220096;28;20053;-68
2021/09/12 16:37:55;;;;;;;12.65;5.03;;;;;;;;;;6199383;28;20012;-69
2021/09/12 16:40:58;;;;;;;;;;;;;;;;;;6195459;28;20050;-68
2021/09/12 16:44:01;;;;;;;7.00;5.00;;;;;;;;;;6205254;28;20441;-69
2021/09/12 16:47:06;;;;;;;8.68;4.93;;;;;;;;;;6186328;28;20133;-68
2021/09/12 16:50:08;;;;;;;8.82;5.75;;;;;;;;;;6202826;28;20042;-68
2021/09/12 16:53:10;;;;;;;6.95;5.53;;;;;;;;;;6197036;28;20133;-68
2021/09/12 16:56:13;;;;;;;6.28;5.45;;;;;;;;;;6207737;28;20054;-68
2021/09/12 16:59:14;;;;;;;7.75;4.90;;;;;;;;;;6199596;28;20069;-68
2021/09/12 17:02:16;;;;;;;5.50;5.00;;;;;;;;;;6197936;28;20617;-68
2021/09/12 17:05:18;;;;;;;7.60;5.28;;;;;;;;;;6205246;28;20491;-69
2021/09/12 17:08:20;;;;;;;8.90;5.50;;;;;;;;;;6209595;28;20427;-68
2021/09/12 17:11:23;;;;;;;7.40;5.70;;;;;;;;;;6208379;28;20149;-68
2021/09/12 17:14:25;;;;;;;7.22;6.50;;;;;;;;;;6218675;28;20106;-68
2021/09/12 17:17:26;;;;;;;;;;;;;;;;;;6210271;28;20097;-68
2021/09/12 17:20:28;;;;;;;9.88;5.93;;;;;;;;;;6215645;28;20379;-68
2021/09/12 17:23:30;;;;;;;9.23;5.72;;;;;;;;;;6219629;28;20193;-68
2021/09/12 17:26:33;;;;;;;11.63;5.60;;;;;;;;;;6215288;28;20073;-67
2021/09/12 17:29:34;;;;;;;11.52;5.65;;;;;;;;;;6224938;28;20089;-68
2021/09/12 17:32:36;;;;;;;8.93;5.82;;;;;;;;;;6212155;28;20146;-68
2021/09/12 17:35:37;;;;;;;6.70;5.97;;;;;;;;;;6210295;28;20081;-68
2021/09/12 17:38:39;;;;;;;11.25;5.72;;;;;;;;;;6211570;28;20057;-68
2021/09/12 17:41:42;;;;;;;7.22;6.07;;;;;;;;;;6202637;28;20050;-68
2021/09/12 17:44:45;;;;;;;8.43;5.45;;;;;;;;;;6219896;28;20085;-68
2021/09/12 17:47:46;;;;;;;;;;;;;;;;;;6199569;28;20375;-68
2021/09/12 17:50:47;;;;;;;9.35;5.90;;;;;;;;;;6207582;28;20433;-68
2021/09/12 17:53:49;;;;;;;8.95;5.50;;;;;;;;;;6206833;28;20118;-68
2021/09/12 17:56:52;;;;;;;7.60;5.78;;;;;;;;;;6205501;28;20058;-67
2021/09/12 17:59:54;;;;;;;6.97;5.85;;;;;;;;;;6205572;28;20129;-67
2021/09/12 18:02:55;;;;;;;7.13;5.95;;;;;;;;;;6194310;28;20450;-67